Time;durP1;ratioP1;P1;durP2;ratioP2;P2;SDS_P1;SDS_P2;PMS_P1;PMS_P2;Temp;Humidity;BMP_temperature;BMP_pressure;BME280_temperature;BME280_humidity;BME280_pressure;Samples;Min_cycle;Max_cycle;Signal;HPM_P1;HPM_P2
2023/09/22 00:00:44;;;;;;;;;;;;;;;16.54;74.65;100107.23;105252;1264;62117;-79
2023/09/22 00:03:30;;;;;;;;;;;;;;;16.53;74.58;100109.20;105136;1265;125172;-77
2023/09/22 00:05:57;;;;;;;;;;;;;;;16.51;74.67;100100.19;105173;1265;75485;-74
2023/09/22 00:08:23;;;;;;;;;;;;;;;16.49;74.70;100095.95;105083;1266;125646;-75
2023/09/22 00:10:50;;;;;;;;;;;;;;;16.49;74.72;100090.46;105161;1265;72749;-76
2023/09/22 00:13:17;;;;;;;;;;;;;;;16.47;74.65;100092.08;105046;1264;128003;-76
2023/09/22 00:15:44;;;;;;;;;;;;;;;16.45;74.82;100092.09;105166;1265;62101;-76
2023/09/22 00:18:11;;;;;;;;;;;;;;;16.43;74.91;100091.22;105182;1264;74224;-76
2023/09/22 00:20:38;;;;;;;;;;;;;;;16.42;74.97;100098.15;105120;1264;126472;-76
2023/09/22 00:23:05;;;;;;;;;;;;;;;16.41;74.98;100098.52;105233;1264;71473;-76
2023/09/22 00:25:31;;;;;;;;;;;;;;;16.40;75.17;100092.33;105142;1265;126229;-76
2023/09/22 00:27:58;;;;;;;;;;;;;;;16.37;74.98;100081.73;105204;1265;62040;-76
2023/09/22 00:30:26;;;;;;;;;;;;;;;16.34;75.18;100084.59;105147;1269;75457;-75
2023/09/22 00:32:52;;;;;;;;;;;;;;;16.31;75.19;100073.98;105099;1264;125141;-76
2023/09/22 00:35:19;;;;;;;;;;;;;;;16.32;75.27;100071.31;105216;1265;71458;-75
2023/09/22 00:37:46;;;;;;;;;;;;;;;16.32;75.34;100071.66;105095;1269;125778;-76
2023/09/22 00:40:12;;;;;;;;;;;;;;;16.31;75.42;100072.03;105016;1270;62187;-75
2023/09/22 00:42:39;;;;;;;;;;;;;;;16.31;75.53;100066.02;105171;1264;75562;-75
2023/09/22 00:45:06;;;;;;;;;;;;;;;16.30;75.52;100060.34;105158;1268;125413;-76
2023/09/22 00:47:32;;;;;;;;;;;;;;;16.30;75.64;100058.60;105234;1264;72779;-75
2023/09/22 00:49:59;;;;;;;;;;;;;;;16.31;75.68;100058.21;104997;1265;125425;-79
2023/09/22 00:52:26;;;;;;;;;;;;;;;16.32;75.73;100055.91;105260;1269;62069;-77
2023/09/22 00:54:52;;;;;;;;;;;;;;;16.32;75.83;100055.55;105233;1264;62101;-76
2023/09/22 00:57:19;;;;;;;;;;;;;;;16.34;75.81;100049.52;105081;1264;126303;-78
2023/09/22 00:59:46;;;;;;;;;;;;;;;16.34;75.81;100048.64;105360;1264;71377;-77
2023/09/22 01:02:12;;;;;;;;;;;;;;;16.33;75.74;100049.17;104948;1265;125191;-78
2023/09/22 01:04:39;;;;;;;;;;;;;;;16.32;75.80;100046.17;105316;1265;62078;-76
2023/09/22 01:07:06;;;;;;;;;;;;;;;16.31;75.81;100045.13;105301;1264;75524;-78
2023/09/22 01:09:33;;;;;;;;;;;;;;;16.28;75.75;100038.42;105099;1269;124932;-79
2023/09/22 01:12:00;;;;;;;;;;;;;;;16.25;75.89;100036.52;105238;1265;72761;-79
2023/09/22 01:14:26;;;;;;;;;;;;;;;16.25;75.96;100040.41;105168;1270;125657;-78
2023/09/22 01:16:53;;;;;;;;;;;;;;;16.24;76.08;100036.70;105223;1265;62111;-78
2023/09/22 01:19:20;;;;;;;;;;;;;;;16.22;76.09;100036.19;105216;1269;125820;-77
2023/09/22 01:21:49;;;;;;;;;;;;;;;16.19;76.16;100034.63;105268;1264;66710;-79
2023/09/22 01:24:16;;;;;;;;;;;;;;;16.18;76.13;100033.04;105296;1269;72735;-79
2023/09/22 01:26:42;;;;;;;;;;;;;;;16.15;76.10;100032.18;105157;1265;125249;-76
2023/09/22 01:29:09;;;;;;;;;;;;;;;16.12;76.03;100030.98;105285;1265;62123;-78
2023/09/22 01:31:38;;;;;;;;;;;;;;;16.07;76.04;100027.64;105091;1264;125741;-78
2023/09/22 01:34:08;;;;;;;;;;;;;;;16.04;76.10;100025.55;105299;1264;65884;-78
2023/09/22 01:36:34;;;;;;;;;;;;;;;16.00;76.18;100033.02;106209;1265;73189;-75
2023/09/22 01:39:01;;;;;;;;;;;;;;;15.98;76.19;100038.17;105146;1265;125549;-75
2023/09/22 01:41:29;;;;;;;;;;;;;;;15.94;76.33;100035.37;105179;1265;62062;-76
2023/09/22 01:43:55;;;;;;;;;;;;;;;15.92;76.29;100032.38;104955;1265;125490;-75
2023/09/22 01:46:22;;;;;;;;;;;;;;;15.90;76.28;100032.05;105265;1266;64747;-75
2023/09/22 01:48:48;;;;;;;;;;;;;;;15.87;76.35;100030.99;105264;1264;70930;-75
2023/09/22 01:51:17;;;;;;;;;;;;;;;15.85;76.35;100024.66;104900;1268;126026;-75
2023/09/22 01:53:43;;;;;;;;;;;;;;;15.82;76.43;100018.66;105236;1265;61903;-75
2023/09/22 01:56:10;;;;;;;;;;;;;;;15.81;76.44;100011.77;105199;1269;125395;-75
2023/09/22 01:58:36;;;;;;;;;;;;;;;15.80;76.50;100008.43;105314;1264;65167;-76
2023/09/22 02:01:03;;;;;;;;;;;;;;;15.77;76.59;100006.50;105216;1264;71935;-75
2023/09/22 02:03:29;;;;;;;;;;;;;;;15.75;76.64;100004.21;105142;1264;124940;-76
2023/09/22 02:05:58;;;;;;;;;;;;;;;15.75;76.74;100002.62;105276;1269;62073;-76
2023/09/22 02:08:25;;;;;;;;;;;;;;;15.75;76.70;100000.85;105159;1269;125707;-76
2023/09/22 02:10:52;;;;;;;;;;;;;;;15.75;76.92;99997.66;105237;1265;65263;-76
2023/09/22 02:13:18;;;;;;;;;;;;;;;15.73;76.89;99990.23;105113;1268;125162;-76
2023/09/22 02:15:45;;;;;;;;;;;;;;;15.74;77.00;99988.29;105035;1270;62184;-76
2023/09/22 02:18:11;;;;;;;;;;;;;;;15.75;77.01;99981.04;105296;1270;62103;-75
2023/09/22 02:20:40;;;;;;;;;;;;;;;15.74;76.94;99976.98;105186;1264;125074;-76
2023/09/22 02:23:07;;;;;;;;;;;;;;;15.74;77.12;99973.61;105285;1265;66343;-76
2023/09/22 02:25:33;;;;;;;;;;;;;;;15.73;77.04;99975.02;105207;1269;125855;-75
2023/09/22 02:28:00;;;;;;;;;;;;;;;15.74;77.27;99969.91;105097;1270;61935;-75
2023/09/22 02:30:26;;;;;;;;;;;;;;;15.75;77.25;99967.77;105272;1264;62032;-75
2023/09/22 02:32:54;;;;;;;;;;;;;;;15.76;77.38;99964.77;105178;1270;125117;-75
2023/09/22 02:35:21;;;;;;;;;;;;;;;15.79;77.39;99960.85;105304;1269;64668;-76
2023/09/22 02:37:48;;;;;;;;;;;;;;;15.80;77.38;99961.55;105148;1265;125204;-76
2023/09/22 02:40:15;;;;;;;;;;;;;;;15.79;77.44;99959.27;105184;1264;62200;-74
2023/09/22 02:42:42;;;;;;;;;;;;;;;15.78;77.45;99958.91;105245;1265;60167;-74
2023/09/22 02:45:12;;;;;;;;;;;;;;;15.77;77.38;99952.73;105227;1264;124975;-75
2023/09/22 02:47:38;;;;;;;;;;;;;;;15.74;77.43;99950.62;105251;1269;66330;-76
2023/09/22 02:50:08;;;;;;;;;;;;;;;15.73;77.31;99952.39;105059;1267;126139;-75
2023/09/22 02:52:34;;;;;;;;;;;;;;;15.70;77.35;99953.28;105233;1270;62066;-75
2023/09/22 02:55:03;;;;;;;;;;;;;;;15.67;77.33;99959.66;105063;1265;62047;-76
2023/09/22 02:57:29;;;;;;;;;;;;;;;15.65;77.43;99957.73;105204;1270;124904;-75
2023/09/22 02:59:56;;;;;;;;;;;;;;;15.63;77.48;99963.06;105264;1269;64674;-75
2023/09/22 03:02:22;;;;;;;;;;;;;;;15.60;77.46;99962.21;105032;1267;125372;-76
2023/09/22 03:04:49;;;;;;;;;;;;;;;15.57;77.58;99965.23;105288;1265;62075;-75
2023/09/22 03:07:16;;;;;;;;;;;;;;;15.54;77.55;99966.31;105166;1267;125103;-75
2023/09/22 03:09:42;;;;;;;;;;;;;;;15.50;77.55;99966.88;105257;1269;75584;-74
2023/09/22 03:12:09;;;;;;;;;;;;;;;15.47;77.73;99966.55;105384;1268;66287;-75
2023/09/22 03:14:36;;;;;;;;;;;;;;;15.45;77.87;99967.81;105180;1265;125026;-74
2023/09/22 03:17:02;;;;;;;;;;;;;;;15.42;77.80;99967.65;105165;1267;60469;-76
2023/09/22 03:19:29;;;;;;;;;;;;;;;15.41;77.84;99967.48;105202;1269;125391;-75
2023/09/22 03:21:56;;;;;;;;;;;;;;;15.40;78.04;99963.42;105235;1269;75654;-75
2023/09/22 03:24:22;;;;;;;;;;;;;;;15.37;78.16;99960.09;105331;1265;64458;-75
2023/09/22 03:26:49;;;;;;;;;;;;;;;15.36;78.00;99959.38;105156;1265;125513;-76
2023/09/22 03:29:15;;;;;;;;;;;;;;;15.36;78.11;99957.09;105196;1265;60159;-75
2023/09/22 03:31:42;;;;;;;;;;;;;;;15.35;78.23;99960.80;105261;1265;125134;-74
2023/09/22 03:34:10;;;;;;;;;;;;;;;15.35;78.24;99953.39;105230;1269;74155;-74
2023/09/22 03:36:37;;;;;;;;;;;;;;;15.34;78.27;99953.91;105255;1267;65089;-76
2023/09/22 03:39:07;;;;;;;;;;;;;;;15.35;78.32;99948.27;105132;1265;125695;-75
2023/09/22 03:41:35;;;;;;;;;;;;;;;15.35;78.50;99948.44;105284;1271;62174;-75
2023/09/22 03:44:02;;;;;;;;;;;;;;;15.36;78.67;99946.83;105122;1265;125719;-75
2023/09/22 03:46:29;;;;;;;;;;;;;;;15.39;78.71;99936.75;105288;1266;74045;-75
2023/09/22 03:48:55;;;;;;;;;;;;;;;15.41;78.79;99922.59;105091;1270;64973;-75
2023/09/22 03:51:22;;;;;;;;;;;;;;;15.43;78.84;99920.98;105189;1265;125480;-74
2023/09/22 03:53:49;;;;;;;;;;;;;;;15.45;78.82;99926.61;105251;1265;62170;-77
2023/09/22 03:56:15;;;;;;;;;;;;;;;15.47;78.92;99930.31;105167;1267;124989;-77
2023/09/22 03:58:42;;;;;;;;;;;;;;;15.48;78.98;99930.13;105982;1264;61998;-78
2023/09/22 04:01:08;;;;;;;;;;;;;;;15.49;78.86;99930.11;105282;1265;60123;-78
2023/09/22 04:03:36;;;;;;;;;;;;;;;15.49;78.88;99927.11;105234;1269;125286;-81
2023/09/22 04:06:04;;;;;;;;;;;;;;;15.48;78.92;99927.46;105944;1264;62059;-78
2023/09/22 04:08:31;;;;;;;;;;;;;;;15.47;78.97;99929.60;105925;1269;126109;-79
2023/09/22 04:10:58;;;;;;;;;;;;;;;15.49;79.02;99932.06;105849;1270;75523;-82
2023/09/22 04:13:27;;;;;;;;;;;;;;;15.49;78.98;99937.89;105965;1265;125460;-80
2023/09/22 04:15:58;;;;;;;;;;;;;;;15.49;79.05;99938.59;106007;1265;72765;-78
2023/09/22 04:18:29;;;;;;;;;;;;;;;15.48;79.00;99937.38;106263;1270;62049;-77
2023/09/22 04:21:01;;;;;;;;;;;;;;;15.46;78.89;99932.79;105923;1269;126025;-79
2023/09/22 04:23:28;;;;;;;;;;;;;;;15.46;79.14;99927.30;106027;1265;73999;-77
2023/09/22 04:25:54;;;;;;;;;;;;;;;15.47;79.11;99937.03;105654;1266;125615;-77
2023/09/22 04:28:23;;;;;;;;;;;;;;;15.47;79.19;99938.97;105915;1270;72424;-81
2023/09/22 04:30:50;;;;;;;;;;;;;;;15.48;79.21;99940.91;106066;1265;62056;-81
2023/09/22 04:33:17;;;;;;;;;;;;;;;15.48;79.23;99932.23;105825;1265;125202;-78
2023/09/22 04:35:44;;;;;;;;;;;;;;;15.48;79.25;99929.05;105353;1271;75505;-78
2023/09/22 04:38:10;;;;;;;;;;;;;;;15.49;79.19;99929.94;105244;1265;124962;-80
2023/09/22 04:40:38;;;;;;;;;;;;;;;15.51;79.34;99930.28;105263;1265;71448;-79
2023/09/22 04:43:07;;;;;;;;;;;;;;;15.55;79.38;99928.64;105249;1265;60117;-79
2023/09/22 04:45:37;;;;;;;;;;;;;;;15.59;79.32;99927.38;105211;1267;126067;-79
2023/09/22 04:48:07;;;;;;;;;;;;;;;15.65;79.37;99934.22;105124;1274;75547;-79
2023/09/22 04:50:34;;;;;;;;;;;;;;;15.71;79.31;99940.02;105197;1267;124980;-78
2023/09/22 04:53:00;;;;;;;;;;;;;;;15.77;79.38;99937.86;105309;1265;62290;-78
2023/09/22 04:55:29;;;;;;;;;;;;;;;15.84;79.33;99934.08;105183;1265;125123;-80
2023/09/22 04:57:58;;;;;;;;;;;;;;;15.91;79.30;99931.01;105388;1270;62188;-79
2023/09/22 05:00:27;;;;;;;;;;;;;;;15.99;79.22;99933.05;105208;1265;75546;-82
2023/09/22 05:02:53;;;;;;;;;;;;;;;16.06;79.18;99933.50;105784;1267;125358;-82
2023/09/22 05:05:22;;;;;;;;;;;;;;;16.16;79.26;99935.36;105841;1270;72741;-82
2023/09/22 05:07:50;;;;;;;;;;;;;;;16.26;79.21;99937.54;105679;1269;125289;-79
2023/09/22 05:10:17;;;;;;;;;;;;;;;16.36;79.14;99937.42;105141;1273;62066;-79
2023/09/22 05:12:43;;;;;;;;;;;;;;;16.46;79.18;99937.30;105388;1269;73925;-80
2023/09/22 05:15:10;;;;;;;;;;;;;;;16.55;78.95;99936.14;105345;1267;125845;-79
2023/09/22 05:17:37;;;;;;;;;;;;;;;16.60;78.91;99936.61;105271;1269;71392;-82
2023/09/22 05:20:05;;;;;;;;;;;;;;;16.66;78.75;99934.05;106114;1269;125451;-83
2023/09/22 05:22:32;;;;;;;;;;;;;;;16.71;78.68;99931.50;106129;1269;62107;-81
2023/09/22 05:24:58;;;;;;;;;;;;;;;16.77;78.73;99925.94;106335;1269;74919;-81
2023/09/22 05:27:26;;;;;;;;;;;;;;;16.84;78.72;99926.38;106363;1269;125328;-81
2023/09/22 05:29:54;;;;;;;;;;;;;;;16.95;78.70;99928.91;106513;1270;72726;-82
2023/09/22 05:32:20;;;;;;;;;;;;;;;17.04;78.67;99926.64;106295;1269;125757;-82
2023/09/22 05:34:47;;;;;;;;;;;;;;;17.13;78.63;99928.82;106374;1265;62083;-82
2023/09/22 05:37:14;;;;;;;;;;;;;;;17.23;78.65;99935.41;106353;1266;125216;-81
2023/09/22 05:39:41;;;;;;;;;;;;;;;17.34;78.56;99936.29;106124;1269;66158;-82
2023/09/22 05:42:08;;;;;;;;;;;;;;;17.46;78.42;99933.80;105795;1270;72217;-82
2023/09/22 05:44:35;;;;;;;;;;;;;;;17.57;78.41;99932.55;105805;1270;125246;-82
2023/09/22 05:47:02;;;;;;;;;;;;;;;17.70;78.29;99932.32;105924;1267;62136;-82
2023/09/22 05:49:29;;;;;;;;;;;;;;;17.84;78.25;99931.92;105941;1265;125360;-82
2023/09/22 05:51:55;;;;;;;;;;;;;;;17.99;78.17;99938.95;105909;1269;66554;-82
2023/09/22 05:54:22;;;;;;;;;;;;;;;18.13;77.94;99939.57;106117;1265;72561;-82
2023/09/22 05:56:48;;;;;;;;;;;;;;;18.26;77.69;99943.77;105982;1270;125344;-82
2023/09/22 05:59:15;;;;;;;;;;;;;;;18.36;77.59;99943.04;105988;1265;60219;-82
2023/09/22 06:01:42;;;;;;;;;;;;;;;18.46;77.43;99943.90;105792;1270;125574;-83
2023/09/22 06:04:11;;;;;;;;;;;;;;;18.55;77.25;99946.04;106006;1265;64496;-83
2023/09/22 06:06:38;;;;;;;;;;;;;;;18.62;77.02;99946.05;106058;1270;71379;-83
2023/09/22 06:09:10;;;;;;;;;;;;;;;18.71;76.96;99946.76;106060;1265;124983;-82
2023/09/22 06:11:38;;;;;;;;;;;;;;;18.79;76.73;99947.30;106121;1265;61989;-82
2023/09/22 06:14:05;;;;;;;;;;;;;;;18.87;76.64;99951.96;106127;1269;125143;-83
2023/09/22 06:16:31;;;;;;;;;;;;;;;18.93;76.50;99953.96;106060;1269;66046;-82
2023/09/22 06:22:54;;;;;;;;;;;;;;;19.09;76.31;99955.39;107840;1260;62115;-96
2023/09/22 06:25:27;;;;;;;;;;;;;;;19.14;76.26;99941.92;106513;1267;125714;-95
2023/09/22 06:31:11;;;;;;;;;;;;;;;19.28;75.93;99939.13;85734;1288;63360;-96
2023/09/22 06:42:33;;;;;;;;;;;;;;;19.55;75.34;99945.92;91241;1260;79542;-96
2023/09/22 06:45:11;;;;;;;;;;;;;;;19.66;75.30;99947.28;107692;1266;123608;-96
2023/09/22 06:51:06;;;;;;;;;;;;;;;19.87;74.99;99962.07;84649;1264;60661;-96
2023/09/22 06:54:14;;;;;;;;;;;;;;;19.99;74.61;99967.27;107496;1264;60545;-96
2023/09/22 06:56:45;;;;;;;;;;;;;;;20.07;74.56;99965.10;107606;1270;124318;-96
2023/09/22 06:59:12;;;;;;;;;;;;;;;20.15;74.18;99969.88;107196;1270;66351;-95
2023/09/22 07:01:40;;;;;;;;;;;;;;;20.21;74.02;99966.69;106979;1264;124640;-95
2023/09/22 07:04:10;;;;;;;;;;;;;;;20.26;73.73;99962.80;106740;1265;62101;-93
2023/09/22 07:06:41;;;;;;;;;;;;;;;20.34;73.58;99960.64;106653;1264;62414;-95
2023/09/22 07:09:11;;;;;;;;;;;;;;;20.40;73.33;99961.54;106633;1267;125670;-96
2023/09/22 07:11:40;;;;;;;;;;;;;;;20.49;73.27;99968.76;106657;1265;64781;-95
2023/09/22 07:14:07;;;;;;;;;;;;;;;20.58;73.09;99971.39;106737;1266;125731;-95
2023/09/22 07:16:36;;;;;;;;;;;;;;;20.67;73.03;99973.27;107337;1264;62989;-95
2023/09/22 07:19:03;;;;;;;;;;;;;;;20.77;72.84;99972.09;106760;1271;62111;-96
2023/09/22 07:21:30;;;;;;;;;;;;;;;20.88;72.50;99977.14;107156;1270;125015;-95
2023/09/22 07:24:04;;;;;;;;;;;;;;;20.97;72.26;99976.48;107602;1264;67597;-95
2023/09/22 07:26:32;;;;;;;;;;;;;;;21.07;72.09;99972.10;107495;1265;125006;-95
2023/09/22 07:29:00;;;;;;;;;;;;;;;21.17;71.78;99971.80;107987;1265;60612;-96
2023/09/22 07:31:39;;;;;;;;;;;;;;;21.26;71.65;99966.86;107571;1267;79462;-95
2023/09/22 07:43:00;;;;;;;;;;;;;;;21.66;70.75;99956.69;93682;1260;78850;-95
2023/09/22 07:45:32;;;;;;;;;;;;;;;21.74;70.61;99958.73;103621;1264;5578710;-96
2023/09/22 07:50:40;;;;;;;;;;;;;;;21.88;70.16;99958.97;107547;1265;79348;-96
2023/09/22 08:15:35;;;;;;;;;;;;;;;22.63;68.11;99975.30;106521;1275;124027;-95
2023/09/22 08:19:13;;;;;;;;;;;;;;;;;;;;;
2023/09/22 08:26:11;;;;;;;;;;;;;;;;;;;;;
2023/09/22 08:29:32;;;;;;;;;;;;;;;23.25;66.88;99972.58;105086;1282;62115;-95
2023/09/22 08:46:40;;;;;;;;;;;;;;;;;;;;;
2023/09/22 08:59:27;;;;;;;;;;;;;;;23.81;64.66;99947.20;103711;1296;74171;-95
2023/09/22 09:02:17;;;;;;;;;;;;;;;;;;;;;
2023/09/22 09:05:43;;;;;;;;;;;;;;;23.96;64.32;99945.69;106096;1285;599092;-96
2023/09/22 09:12:18;;;;;;;;;;;;;;;24.29;64.07;99940.66;83281;1313;63076;-93
2023/09/22 09:15:59;;;;;;;;;;;;;;;;;;;;;
2023/09/22 09:22:53;;;;;;;;;;;;;;;24.75;62.51;99948.64;104957;1280;124112;-96
2023/09/22 09:36:26;;;;;;;;;;;;;;;25.39;61.76;99950.44;104070;1291;59657;-95
2023/09/22 09:38:55;;;;;;;;;;;;;;;25.62;61.40;99947.71;104141;1292;123743;-94
2023/09/22 09:41:23;;;;;;;;;;;;;;;25.82;61.20;99945.80;104084;1290;73125;-93
2023/09/22 09:43:50;;;;;;;;;;;;;;;25.98;60.80;99944.11;104256;1284;59944;-95
2023/09/22 09:46:19;;;;;;;;;;;;;;;26.07;60.51;99945.27;104284;1287;123465;-94
2023/09/22 09:48:48;;;;;;;;;;;;;;;26.12;60.16;99937.98;104405;1286;59491;-94
2023/09/22 09:51:28;;;;;;;;;;;;;;;26.16;59.98;99943.18;104105;1289;122385;-94
2023/09/22 09:53:59;;;;;;;;;;;;;;;26.14;59.86;99943.98;104794;1283;73221;-93
2023/09/22 09:56:26;;;;;;;;;;;;;;;26.15;59.58;99942.48;104705;1288;59949;-94
2023/09/22 09:58:53;;;;;;;;;;;;;;;26.11;59.45;99943.26;104484;1288;123204;-95
2023/09/22 10:01:20;;;;;;;;;;;;;;;26.03;59.20;99942.59;105174;1275;59740;-94
2023/09/22 10:03:47;;;;;;;;;;;;;;;25.95;59.00;99937.83;105648;1268;123341;-94
2023/09/22 10:06:16;;;;;;;;;;;;;;;25.87;58.95;99931.88;106120;1272;66739;-93
2023/09/22 10:08:44;;;;;;;;;;;;;;;25.81;59.03;99931.29;106029;1264;123957;-95
2023/09/22 10:11:11;;;;;;;;;;;;;;;25.74;58.87;99919.24;106305;1264;72782;-95
2023/09/22 10:13:38;;;;;;;;;;;;;;;25.71;58.72;99917.23;106245;1268;59742;-94
2023/09/22 10:16:08;;;;;;;;;;;;;;;25.70;58.90;99917.48;106405;1259;123390;-94
2023/09/22 10:18:59;;;;;;;;;;;;;;;25.67;58.80;99918.52;106684;1258;74377;-94
2023/09/22 10:21:38;;;;;;;;;;;;;;;25.64;58.50;99914.36;106482;1258;124055;-94
2023/09/22 10:24:15;;;;;;;;;;;;;;;25.62;58.28;99902.44;106825;1259;63962;-95
2023/09/22 10:26:54;;;;;;;;;;;;;;;25.58;58.13;99900.33;106624;1265;123483;-95
2023/09/22 10:29:35;;;;;;;;;;;;;;;25.56;58.11;99907.56;106802;1258;59660;-95
2023/09/22 10:32:21;;;;;;;;;;;;;;;25.57;58.15;99905.03;106718;1258;75137;-94
2023/09/22 10:34:55;;;;;;;;;;;;;;;25.58;57.94;99906.95;106645;1259;123418;-94
2023/09/22 10:37:28;;;;;;;;;;;;;;;25.58;57.83;99908.54;106655;1259;71406;-95
2023/09/22 10:39:55;;;;;;;;;;;;;;;25.61;57.84;99905.36;106585;1258;123386;-94
2023/09/22 10:42:27;;;;;;;;;;;;;;;25.65;57.84;99903.90;106619;1259;60338;-94
2023/09/22 10:45:01;;;;;;;;;;;;;;;25.69;57.86;99903.51;106487;1259;123558;-94
2023/09/22 10:47:38;;;;;;;;;;;;;;;25.73;57.71;99905.46;106483;1266;59663;-94
2023/09/22 10:50:10;;;;;;;;;;;;;;;25.70;57.50;99907.77;106566;1259;73077;-94
2023/09/22 10:52:38;;;;;;;;;;;;;;;25.64;57.53;99912.92;106596;1258;123270;-95
2023/09/22 10:55:12;;;;;;;;;;;;;;;25.60;57.48;99915.64;106623;1261;59943;-94
2023/09/22 10:57:55;;;;;;;;;;;;;;;25.62;57.66;99915.36;106597;1259;123321;-93
2023/09/22 11:00:36;;;;;;;;;;;;;;;25.72;57.75;99915.38;106717;1259;65728;-94
2023/09/22 11:03:16;;;;;;;;;;;;;;;25.86;57.53;99923.14;106279;1259;123510;-94
2023/09/22 11:05:46;;;;;;;;;;;;;;;26.04;57.38;99917.20;106616;1260;59834;-93
2023/09/22 11:08:17;;;;;;;;;;;;;;;26.25;57.14;99919.36;107498;1259;59765;-95
2023/09/22 11:10:48;;;;;;;;;;;;;;;26.42;56.80;99921.30;106913;1259;123330;-95
2023/09/22 11:13:15;;;;;;;;;;;;;;;26.54;56.39;99919.38;107055;1258;59711;-95
2023/09/22 11:16:08;;;;;;;;;;;;;;;26.65;56.43;99922.77;107012;1258;123539;-94
2023/09/22 11:18:35;;;;;;;;;;;;;;;26.76;56.15;99921.66;107418;1258;58401;-95
2023/09/22 11:24:21;;;;;;;;;;;;;;;26.91;55.63;99931.05;107642;1259;64254;-95
2023/09/22 11:26:48;;;;;;;;;;;;;;;26.96;55.34;99930.44;106926;1259;59464;-95
2023/09/22 11:29:20;;;;;;;;;;;;;;;26.94;55.05;99936.80;106866;1261;123013;-93
2023/09/22 11:31:51;;;;;;;;;;;;;;;26.89;54.94;99935.14;106958;1259;60191;-95
2023/09/22 11:34:19;;;;;;;;;;;;;;;26.77;54.67;99935.61;106884;1260;123297;-94
2023/09/22 11:36:53;;;;;;;;;;;;;;;26.69;54.56;99932.11;106748;1259;64531;-95
2023/09/22 11:39:25;;;;;;;;;;;;;;;26.61;54.56;99930.92;106733;1259;123467;-95
2023/09/22 11:41:52;;;;;;;;;;;;;;;26.54;54.72;99931.08;106669;1259;63840;-96
2023/09/22 11:44:19;;;;;;;;;;;;;;;26.53;54.67;99933.83;106824;1267;59258;-95
2023/09/22 11:46:46;;;;;;;;;;;;;;;26.54;54.74;99937.58;106760;1258;122386;-94
2023/09/22 11:49:27;;;;;;;;;;;;;;;26.57;54.71;99941.73;107065;1259;63591;-95
2023/09/22 11:51:58;;;;;;;;;;;;;;;26.61;54.47;99943.68;106933;1259;123612;-95
2023/09/22 11:54:30;;;;;;;;;;;;;;;26.65;54.24;99943.66;107086;1258;65404;-94
2023/09/22 11:57:01;;;;;;;;;;;;;;;26.70;54.11;99940.85;106938;1260;123709;-94
2023/09/22 11:59:31;;;;;;;;;;;;;;;26.74;53.84;99939.20;106909;1259;59666;-95
2023/09/22 12:02:01;;;;;;;;;;;;;;;26.73;53.77;99937.08;107228;1267;65380;-94
2023/09/22 12:04:36;;;;;;;;;;;;;;;26.73;53.63;99938.90;106691;1258;123727;-94
2023/09/22 12:07:03;;;;;;;;;;;;;;;26.72;53.59;99938.21;106902;1264;71208;-93
2023/09/22 12:09:32;;;;;;;;;;;;;;;26.73;53.55;99941.05;106936;1259;123626;-95
2023/09/22 12:11:59;;;;;;;;;;;;;;;26.78;53.43;99944.58;106736;1266;59596;-95
2023/09/22 12:14:26;;;;;;;;;;;;;;;26.83;53.39;99948.05;106821;1266;62962;-95
2023/09/22 12:16:53;;;;;;;;;;;;;;;26.89;53.22;99952.42;106497;1266;124189;-95
2023/09/22 12:19:20;;;;;;;;;;;;;;;26.93;53.25;99953.80;106701;1259;64110;-94
2023/09/22 12:21:47;;;;;;;;;;;;;;;26.96;53.06;99954.55;106582;1259;123460;-94
2023/09/22 12:24:22;;;;;;;;;;;;;;;26.97;52.99;99952.16;106635;1259;60256;-94
2023/09/22 12:27:08;;;;;;;;;;;;;;;26.96;52.97;99954.02;106639;1259;124153;-94
2023/09/22 12:30:28;;;;;;;;;;;;;;;;;;;;;
2023/09/22 12:33:14;;;;;;;;;;;;;;;27.01;53.09;99963.30;107605;1259;122620;-93
2023/09/22 12:36:17;;;;;;;;;;;;;;;;;;;;;
2023/09/22 12:38:58;;;;;;;;;;;;;;;27.01;52.81;99971.95;107173;1258;123525;-94
2023/09/22 12:41:25;;;;;;;;;;;;;;;26.97;52.71;99973.56;107261;1259;64269;-94
2023/09/22 12:43:52;;;;;;;;;;;;;;;26.94;52.60;99971.37;107034;1259;59674;-95
2023/09/22 12:46:23;;;;;;;;;;;;;;;26.95;52.48;99972.95;106794;1259;122300;-86
2023/09/22 12:48:50;;;;;;;;;;;;;;;27.01;52.53;99975.34;106323;1261;59544;-89
2023/09/22 12:51:17;;;;;;;;;;;;;;;27.07;52.45;99977.55;106299;1265;123773;-87
2023/09/22 12:53:43;;;;;;;;;;;;;;;27.11;52.33;99979.64;106458;1259;63286;-86
2023/09/22 12:56:10;;;;;;;;;;;;;;;27.16;52.26;99981.36;106298;1263;59693;-87
2023/09/22 12:58:38;;;;;;;;;;;;;;;27.19;52.33;99978.30;106158;1265;124118;-88
2023/09/22 13:01:04;;;;;;;;;;;;;;;27.21;52.18;99982.00;106611;1262;59837;-86
2023/09/22 13:03:34;;;;;;;;;;;;;;;27.22;52.20;99986.45;106287;1260;123595;-87
2023/09/22 13:06:02;;;;;;;;;;;;;;;27.25;52.28;99988.25;106414;1261;64157;-80
2023/09/22 13:08:29;;;;;;;;;;;;;;;27.29;52.36;99984.58;106267;1265;59766;-80
2023/09/22 13:11:04;;;;;;;;;;;;;;;27.36;52.05;99984.04;106632;1259;123530;-93
2023/09/22 13:13:49;;;;;;;;;;;;;;;27.45;52.22;99980.98;106360;1260;59148;-87
2023/09/22 13:16:16;;;;;;;;;;;;;;;27.52;52.04;99980.05;106207;1264;125154;-87
2023/09/22 13:18:44;;;;;;;;;;;;;;;27.53;51.70;99983.94;106337;1259;64579;-87
2023/09/22 13:21:14;;;;;;;;;;;;;;;27.53;51.39;99990.79;106315;1265;123549;-89
2023/09/22 13:23:42;;;;;;;;;;;;;;;27.56;51.36;99995.90;106317;1265;64133;-88
2023/09/22 13:26:08;;;;;;;;;;;;;;;27.56;51.29;99992.84;106382;1260;59818;-86
2023/09/22 13:28:35;;;;;;;;;;;;;;;27.53;51.19;99995.10;106295;1259;123866;-89
2023/09/22 13:31:05;;;;;;;;;;;;;;;27.49;51.09;99997.15;106230;1260;63986;-88
2023/09/22 13:33:32;;;;;;;;;;;;;;;27.40;50.98;99992.45;106352;1265;137275;-89
2023/09/22 13:35:59;;;;;;;;;;;;;;;27.28;51.16;99986.08;106552;1262;72744;-87
2023/09/22 13:38:26;;;;;;;;;;;;;;;27.18;50.99;99990.25;106242;1260;60513;-88
2023/09/22 13:40:53;;;;;;;;;;;;;;;27.07;51.09;99994.42;106481;1260;123882;-88
2023/09/22 13:43:21;;;;;;;;;;;;;;;27.04;51.30;99993.86;106538;1259;64949;-86
2023/09/22 13:45:48;;;;;;;;;;;;;;;27.00;51.18;100001.33;106442;1259;124010;-87
2023/09/22 13:48:15;;;;;;;;;;;;;;;26.92;51.09;100002.11;106521;1260;71119;-86
2023/09/22 13:50:42;;;;;;;;;;;;;;;26.86;51.11;99999.75;106411;1260;60549;-86
2023/09/22 13:53:09;;;;;;;;;;;;;;;26.78;51.04;100001.48;106352;1261;124871;-86
2023/09/22 13:55:39;;;;;;;;;;;;;;;26.71;51.07;99999.67;106493;1260;65263;-87
2023/09/22 13:58:09;;;;;;;;;;;;;;;26.63;51.17;99996.11;106282;1263;123959;-85
2023/09/22 14:00:39;;;;;;;;;;;;;;;26.57;51.35;99996.77;106378;1261;62769;-87
2023/09/22 14:03:06;;;;;;;;;;;;;;;26.50;51.52;100001.66;106329;1260;124714;-87
2023/09/22 14:05:34;;;;;;;;;;;;;;;26.40;51.49;100002.34;106543;1260;60452;-87
2023/09/22 14:08:03;;;;;;;;;;;;;;;26.32;51.64;99999.18;106374;1265;65086;-87
2023/09/22 14:10:30;;;;;;;;;;;;;;;26.25;51.73;100002.23;106686;1263;123573;-88
2023/09/22 14:12:57;;;;;;;;;;;;;;;26.18;51.83;99997.59;106583;1260;71113;-88
2023/09/22 14:15:24;;;;;;;;;;;;;;;26.10;51.76;99996.56;106649;1262;124870;-86
2023/09/22 14:17:51;;;;;;;;;;;;;;;26.02;52.10;99994.80;106591;1259;60341;-88
2023/09/22 14:20:17;;;;;;;;;;;;;;;25.95;52.10;99997.48;106636;1265;72868;-88
2023/09/22 14:22:44;;;;;;;;;;;;;;;25.89;52.25;100004.44;106537;1265;123769;-87
2023/09/22 14:25:11;;;;;;;;;;;;;;;25.81;52.37;100005.52;106604;1259;70967;-86
2023/09/22 14:27:41;;;;;;;;;;;;;;;25.74;52.55;100003.35;106400;1261;123975;-85
2023/09/22 14:30:08;;;;;;;;;;;;;;;25.69;52.82;100005.02;106412;1257;58851;-86
2023/09/22 14:32:36;;;;;;;;;;;;;;;25.65;52.81;100008.10;106377;1265;75165;-86
2023/09/22 14:35:03;;;;;;;;;;;;;;;25.62;53.06;100010.24;106161;1259;124134;-87
2023/09/22 14:37:29;;;;;;;;;;;;;;;25.58;53.11;100008.30;106416;1263;71863;-85